Terminal Aerodrome Forecast
Issued by NWS

Home | Current Version | Previous Version | Text Only | Print | Product List | Glossary On
Versions: 1 2 3 4 5 6 7 8 9 10 11 12 13 14 15 16 17 18 19 20 21 22 23 24 25 26 27 28
000
FTUS41 KILN 200500
TAFLCK
TAF
KLCK 200539Z 2006/2106 20003KT P6SM BKN250
     FM201200 21010KT P6SM BKN100
     FM201500 21012G18KT P6SM SCT040 BKN080
     FM201900 22011KT P6SM VCSH OVC035
      TEMPO 2023/2103 -SHRA OVC020
     FM210400 27007KT P6SM SCT012=

USA.gov is the U.S. government's official web portal to all federal, state and local government web resources and services.